sensor_id;sensor_type;location;lat;lon;timestamp;pressure;altitude;pressure_sealevel;temperature;humidity
55590;BME280;41452;42.780;23.116;2022-10-10T00:02:18;95023.59;;;9.90;93.55
55590;BME280;41452;42.780;23.116;2022-10-10T00:04:43;95015.91;;;9.89;92.74
55590;BME280;41452;42.780;23.116;2022-10-10T00:07:09;95063.22;;;10.14;92.15
55590;BME280;41452;42.780;23.116;2022-10-10T00:09:34;95033.19;;;10.03;92.50
55590;BME280;41452;42.780;23.116;2022-10-10T00:12:00;95027.22;;;9.89;92.40
55590;BME280;41452;42.780;23.116;2022-10-10T00:14:25;95067.47;;;10.15;91.94
55590;BME280;41452;42.780;23.116;2022-10-10T00:16:50;95071.94;;;10.15;92.17
55590;BME280;41452;42.780;23.116;2022-10-10T00:19:16;95100.50;;;10.30;91.72
55590;BME280;41452;42.780;23.116;2022-10-10T00:21:41;95094.47;;;10.29;91.72
55590;BME280;41452;42.780;23.116;2022-10-10T00:24:07;95109.84;;;10.32;92.15
55590;BME280;41452;42.780;23.116;2022-10-10T00:26:32;95068.31;;;10.09;92.98
55590;BME280;41452;42.780;23.116;2022-10-10T00:28:58;95076.59;;;10.13;92.95
55590;BME280;41452;42.780;23.116;2022-10-10T00:31:23;95004.16;;;9.60;92.69
55590;BME280;41452;42.780;23.116;2022-10-10T00:33:49;95103.75;;;10.25;92.25
55590;BME280;41452;42.780;23.116;2022-10-10T00:36:14;95082.03;;;10.11;92.11
55590;BME280;41452;42.780;23.116;2022-10-10T00:38:40;95080.88;;;10.00;91.91
55590;BME280;41452;42.780;23.116;2022-10-10T00:41:05;95066.16;;;9.93;91.59
55590;BME280;41452;42.780;23.116;2022-10-10T00:43:32;95032.53;;;9.69;91.26
55590;BME280;41452;42.780;23.116;2022-10-10T00:45:58;95058.09;;;9.87;91.47
55590;BME280;41452;42.780;23.116;2022-10-10T00:48:44;95090.13;;;10.03;91.17
55590;BME280;41452;42.780;23.116;2022-10-10T00:51:15;95104.66;;;10.05;91.50
55590;BME280;41452;42.780;23.116;2022-10-10T00:54:03;95115.19;;;9.99;91.47
55590;BME280;41452;42.780;23.116;2022-10-10T00:56:38;95108.13;;;9.93;91.38
55590;BME280;41452;42.780;23.116;2022-10-10T00:59:06;95096.91;;;9.72;91.70
55590;BME280;41452;42.780;23.116;2022-10-10T01:01:36;95099.34;;;9.60;91.97
55590;BME280;41452;42.780;23.116;2022-10-10T01:04:01;95103.41;;;9.56;92.91
55590;BME280;41452;42.780;23.116;2022-10-10T01:06:27;95088.50;;;9.37;93.11
55590;BME280;41452;42.780;23.116;2022-10-10T01:08:54;95025.84;;;9.02;93.04
55590;BME280;41452;42.780;23.116;2022-10-10T01:14:07;95110.25;;;9.57;92.41
55590;BME280;41452;42.780;23.116;2022-10-10T01:21:57;95104.78;;;9.59;91.24
55590;BME280;41452;42.780;23.116;2022-10-10T01:27:50;95076.59;;;9.34;90.19
55590;BME280;41452;42.780;23.116;2022-10-10T01:30:18;95109.66;;;9.48;90.13
55590;BME280;41452;42.780;23.116;2022-10-10T01:33:00;95051.25;;;8.94;90.43
55590;BME280;41452;42.780;23.116;2022-10-10T01:35:48;95103.44;;;9.23;91.51
55590;BME280;41452;42.780;23.116;2022-10-10T01:40:51;95103.84;;;9.20;91.73
55590;BME280;41452;42.780;23.116;2022-10-10T01:43:18;95108.91;;;9.08;91.66
55590;BME280;41452;42.780;23.116;2022-10-10T01:45:48;95082.28;;;8.78;92.92
55590;BME280;41452;42.780;23.116;2022-10-10T01:48:18;95088.31;;;8.78;92.93
55590;BME280;41452;42.780;23.116;2022-10-10T01:53:29;95086.50;;;8.99;92.67
55590;BME280;41452;42.780;23.116;2022-10-10T01:56:09;95082.28;;;8.98;92.17
55590;BME280;41452;42.780;23.116;2022-10-10T01:59:03;95089.31;;;9.04;91.44
55590;BME280;41452;42.780;23.116;2022-10-10T02:01:38;95106.47;;;9.20;91.72
55590;BME280;41452;42.780;23.116;2022-10-10T02:04:14;95099.81;;;9.24;91.67
55590;BME280;41452;42.780;23.116;2022-10-10T02:07:06;95099.59;;;9.25;91.84
55590;BME280;41452;42.780;23.116;2022-10-10T02:09:37;95105.66;;;9.19;91.60
55590;BME280;41452;42.780;23.116;2022-10-10T02:12:05;95025.47;;;8.58;91.40
55590;BME280;41452;42.780;23.116;2022-10-10T02:14:43;95043.16;;;8.56;91.49
55590;BME280;41452;42.780;23.116;2022-10-10T02:17:12;95115.31;;;8.85;92.07
55590;BME280;41452;42.780;23.116;2022-10-10T02:19:45;95119.34;;;8.74;92.57
55590;BME280;41452;42.780;23.116;2022-10-10T02:22:13;95119.13;;;8.69;93.05
55590;BME280;41452;42.780;23.116;2022-10-10T02:24:39;95087.47;;;8.51;93.28
55590;BME280;41452;42.780;23.116;2022-10-10T02:27:10;95078.03;;;8.50;93.13
55590;BME280;41452;42.780;23.116;2022-10-10T02:29:41;95085.09;;;8.69;92.41
55590;BME280;41452;42.780;23.116;2022-10-10T02:32:11;95115.72;;;8.89;92.12
55590;BME280;41452;42.780;23.116;2022-10-10T02:34:42;95096.34;;;8.63;91.93
55590;BME280;41452;42.780;23.116;2022-10-10T02:37:11;95066.53;;;8.57;91.92
55590;BME280;41452;42.780;23.116;2022-10-10T02:39:41;95126.22;;;8.96;91.56
55590;BME280;41452;42.780;23.116;2022-10-10T02:42:08;95115.13;;;8.87;91.55
55590;BME280;41452;42.780;23.116;2022-10-10T02:44:35;95035.06;;;8.37;91.43
55590;BME280;41452;42.780;23.116;2022-10-10T02:47:02;95061.28;;;8.51;91.67
55590;BME280;41452;42.780;23.116;2022-10-10T02:49:30;95132.44;;;8.88;91.52
55590;BME280;41452;42.780;23.116;2022-10-10T02:51:56;95022.75;;;8.18;91.63
55590;BME280;41452;42.780;23.116;2022-10-10T02:54:22;95115.31;;;8.79;91.37
55590;BME280;41452;42.780;23.116;2022-10-10T02:56:47;95063.66;;;8.39;91.67
55590;BME280;41452;42.780;23.116;2022-10-10T02:59:13;95069.88;;;8.31;92.04
55590;BME280;41452;42.780;23.116;2022-10-10T03:01:38;95066.44;;;8.24;92.19
55590;BME280;41452;42.780;23.116;2022-10-10T03:04:03;95088.28;;;8.51;92.37
55590;BME280;41452;42.780;23.116;2022-10-10T03:06:29;95066.72;;;8.43;92.49
55590;BME280;41452;42.780;23.116;2022-10-10T03:08:54;95085.47;;;8.60;92.15
55590;BME280;41452;42.780;23.116;2022-10-10T03:11:20;95087.69;;;8.56;91.21
55590;BME280;41452;42.780;23.116;2022-10-10T03:13:45;95084.66;;;8.52;91.53
55590;BME280;41452;42.780;23.116;2022-10-10T03:16:10;95073.94;;;8.41;91.17
55590;BME280;41452;42.780;23.116;2022-10-10T03:18:36;95040.88;;;8.19;91.12
55590;BME280;41452;42.780;23.116;2022-10-10T03:21:02;95125.78;;;8.72;90.95
55590;BME280;41452;42.780;23.116;2022-10-10T03:23:28;95143.31;;;8.71;90.87
55590;BME280;41452;42.780;23.116;2022-10-10T03:25:53;95088.63;;;8.42;90.67
55590;BME280;41452;42.780;23.116;2022-10-10T03:28:19;95070.09;;;8.36;90.29
55590;BME280;41452;42.780;23.116;2022-10-10T03:30:45;95111.66;;;8.66;89.93
55590;BME280;41452;42.780;23.116;2022-10-10T03:33:10;95080.56;;;8.36;89.51
55590;BME280;41452;42.780;23.116;2022-10-10T03:35:36;95128.19;;;8.67;89.96
55590;BME280;41452;42.780;23.116;2022-10-10T03:38:02;95129.00;;;8.67;89.27
55590;BME280;41452;42.780;23.116;2022-10-10T03:40:29;95140.50;;;8.73;89.32
55590;BME280;41452;42.780;23.116;2022-10-10T03:42:54;95096.47;;;8.42;88.91
55590;BME280;41452;42.780;23.116;2022-10-10T03:45:20;95144.31;;;8.70;88.37
55590;BME280;41452;42.780;23.116;2022-10-10T03:47:45;95148.31;;;8.66;88.44
55590;BME280;41452;42.780;23.116;2022-10-10T03:50:11;95117.25;;;8.43;88.82
55590;BME280;41452;42.780;23.116;2022-10-10T03:52:36;95062.38;;;8.02;88.68
55590;BME280;41452;42.780;23.116;2022-10-10T03:55:02;95138.25;;;8.56;88.29
55590;BME280;41452;42.780;23.116;2022-10-10T03:57:28;95081.31;;;8.10;88.17
55590;BME280;41452;42.780;23.116;2022-10-10T03:59:53;95145.06;;;8.51;88.36
55590;BME280;41452;42.780;23.116;2022-10-10T04:02:19;95088.56;;;8.15;88.06
55590;BME280;41452;42.780;23.116;2022-10-10T04:04:44;95137.22;;;8.44;88.27
55590;BME280;41452;42.780;23.116;2022-10-10T04:07:09;95071.22;;;8.00;88.01
55590;BME280;41452;42.780;23.116;2022-10-10T04:09:35;95091.19;;;8.15;87.67
55590;BME280;41452;42.780;23.116;2022-10-10T04:12:00;95064.38;;;7.99;87.55
55590;BME280;41452;42.780;23.116;2022-10-10T04:14:26;95137.81;;;8.46;87.92
55590;BME280;41452;42.780;23.116;2022-10-10T04:16:52;95136.16;;;8.38;87.68
55590;BME280;41452;42.780;23.116;2022-10-10T04:19:17;95051.63;;;7.83;87.71
55590;BME280;41452;42.780;23.116;2022-10-10T04:21:43;95121.19;;;8.26;87.45
55590;BME280;41452;42.780;23.116;2022-10-10T04:24:08;95095.34;;;8.03;87.74
55590;BME280;41452;42.780;23.116;2022-10-10T04:26:34;95078.19;;;7.80;87.63
55590;BME280;41452;42.780;23.116;2022-10-10T04:28:59;95115.28;;;8.04;88.00
55590;BME280;41452;42.780;23.116;2022-10-10T04:31:25;95100.97;;;7.93;88.30
55590;BME280;41452;42.780;23.116;2022-10-10T04:33:50;95127.59;;;8.10;88.10
55590;BME280;41452;42.780;23.116;2022-10-10T04:36:16;95092.84;;;7.81;88.10
55590;BME280;41452;42.780;23.116;2022-10-10T04:38:41;95129.97;;;8.05;88.30
55590;BME280;41452;42.780;23.116;2022-10-10T04:41:07;95111.44;;;7.93;88.54
55590;BME280;41452;42.780;23.116;2022-10-10T04:43:33;95121.28;;;7.97;88.09
55590;BME280;41452;42.780;23.116;2022-10-10T04:45:58;95123.94;;;8.04;88.35
55590;BME280;41452;42.780;23.116;2022-10-10T04:48:24;95107.38;;;7.90;88.27
55590;BME280;41452;42.780;23.116;2022-10-10T04:50:54;95148.94;;;8.13;88.31
55590;BME280;41452;42.780;23.116;2022-10-10T04:53:20;95147.75;;;8.16;88.50
55590;BME280;41452;42.780;23.116;2022-10-10T04:55:46;95115.03;;;7.92;88.73
55590;BME280;41452;42.780;23.116;2022-10-10T04:58:11;95135.25;;;8.11;89.04
55590;BME280;41452;42.780;23.116;2022-10-10T05:00:38;95123.13;;;8.04;88.99
55590;BME280;41452;42.780;23.116;2022-10-10T05:03:03;95051.50;;;7.56;89.32
55590;BME280;41452;42.780;23.116;2022-10-10T05:05:29;95143.69;;;8.13;89.83
55590;BME280;41452;42.780;23.116;2022-10-10T05:07:54;95160.66;;;8.24;89.88
55590;BME280;41452;42.780;23.116;2022-10-10T05:10:19;95095.09;;;7.84;90.29
55590;BME280;41452;42.780;23.116;2022-10-10T05:12:45;95072.50;;;7.70;90.59
55590;BME280;41452;42.780;23.116;2022-10-10T05:15:10;95170.69;;;8.21;91.35
55590;BME280;41452;42.780;23.116;2022-10-10T05:17:36;95099.91;;;7.80;92.25
55590;BME280;41452;42.780;23.116;2022-10-10T05:20:02;95171.91;;;8.18;92.62
55590;BME280;41452;42.780;23.116;2022-10-10T05:22:27;95130.50;;;7.87;93.21
55590;BME280;41452;42.780;23.116;2022-10-10T05:24:52;95104.53;;;7.78;93.96
55590;BME280;41452;42.780;23.116;2022-10-10T05:27:18;95136.41;;;8.02;94.56
55590;BME280;41452;42.780;23.116;2022-10-10T05:29:43;95072.69;;;7.68;95.37
55590;BME280;41452;42.780;23.116;2022-10-10T05:32:09;95139.50;;;8.19;95.39
55590;BME280;41452;42.780;23.116;2022-10-10T05:34:34;95151.00;;;8.25;95.58
55590;BME280;41452;42.780;23.116;2022-10-10T05:36:59;95152.78;;;8.24;96.05
55590;BME280;41452;42.780;23.116;2022-10-10T05:39:25;95161.50;;;8.38;96.86
55590;BME280;41452;42.780;23.116;2022-10-10T05:41:50;95091.97;;;8.09;96.96
55590;BME280;41452;42.780;23.116;2022-10-10T05:44:16;95132.78;;;8.45;97.59
55590;BME280;41452;42.780;23.116;2022-10-10T05:46:41;95167.25;;;8.68;97.13
55590;BME280;41452;42.780;23.116;2022-10-10T05:49:06;95166.47;;;8.74;97.84
55590;BME280;41452;42.780;23.116;2022-10-10T05:51:32;95113.47;;;8.46;98.75
55590;BME280;41452;42.780;23.116;2022-10-10T05:53:57;95136.66;;;8.62;99.32
55590;BME280;41452;42.780;23.116;2022-10-10T05:56:23;95130.00;;;8.66;99.51
55590;BME280;41452;42.780;23.116;2022-10-10T05:58:49;95145.53;;;8.88;100.00
55590;BME280;41452;42.780;23.116;2022-10-10T06:01:15;95190.75;;;9.37;100.00
55590;BME280;41452;42.780;23.116;2022-10-10T06:03:41;95177.63;;;9.37;100.00
55590;BME280;41452;42.780;23.116;2022-10-10T06:06:06;95179.44;;;9.49;100.00
55590;BME280;41452;42.780;23.116;2022-10-10T06:08:32;95178.41;;;9.57;100.00
55590;BME280;41452;42.780;23.116;2022-10-10T06:11:06;95210.50;;;9.86;100.00
55590;BME280;41452;42.780;23.116;2022-10-10T06:13:36;95181.63;;;9.79;100.00
55590;BME280;41452;42.780;23.116;2022-10-10T06:16:01;95191.69;;;9.96;100.00
55590;BME280;41452;42.780;23.116;2022-10-10T06:18:27;95151.56;;;9.82;100.00
55590;BME280;41452;42.780;23.116;2022-10-10T06:20:52;95193.06;;;10.18;100.00
55590;BME280;41452;42.780;23.116;2022-10-10T06:23:18;95205.16;;;10.33;100.00
55590;BME280;41452;42.780;23.116;2022-10-10T06:25:44;95181.09;;;10.29;100.00
55590;BME280;41452;42.780;23.116;2022-10-10T06:28:10;95210.72;;;10.56;100.00
55590;BME280;41452;42.780;23.116;2022-10-10T06:30:43;95156.66;;;10.28;100.00
55590;BME280;41452;42.780;23.116;2022-10-10T06:33:10;95219.16;;;10.72;100.00
55590;BME280;41452;42.780;23.116;2022-10-10T06:35:40;95098.81;;;10.03;100.00
55590;BME280;41452;42.780;23.116;2022-10-10T06:38:06;95221.88;;;10.90;100.00
55590;BME280;41452;42.780;23.116;2022-10-10T06:40:32;95197.44;;;10.83;100.00
55590;BME280;41452;42.780;23.116;2022-10-10T06:42:57;95198.88;;;10.86;100.00
55590;BME280;41452;42.780;23.116;2022-10-10T06:45:22;95181.88;;;10.81;100.00
55590;BME280;41452;42.780;23.116;2022-10-10T06:47:49;95161.75;;;10.69;100.00
55590;BME280;41452;42.780;23.116;2022-10-10T06:50:14;95160.94;;;10.75;100.00
55590;BME280;41452;42.780;23.116;2022-10-10T06:52:40;95219.91;;;11.17;100.00
55590;BME280;41452;42.780;23.116;2022-10-10T06:55:05;95176.41;;;10.90;100.00
55590;BME280;41452;42.780;23.116;2022-10-10T06:57:31;95159.84;;;10.89;100.00
55590;BME280;41452;42.780;23.116;2022-10-10T06:59:56;95176.56;;;10.95;100.00
55590;BME280;41452;42.780;23.116;2022-10-10T07:02:21;95209.34;;;11.24;100.00
55590;BME280;41452;42.780;23.116;2022-10-10T07:04:47;95169.03;;;11.05;100.00
55590;BME280;41452;42.780;23.116;2022-10-10T07:07:12;95231.03;;;11.45;100.00
55590;BME280;41452;42.780;23.116;2022-10-10T07:09:38;95088.44;;;10.60;100.00
55590;BME280;41452;42.780;23.116;2022-10-10T07:12:03;95160.06;;;11.13;100.00
55590;BME280;41452;42.780;23.116;2022-10-10T07:14:28;95171.84;;;11.35;100.00
55590;BME280;41452;42.780;23.116;2022-10-10T07:16:54;95177.31;;;11.34;100.00
55590;BME280;41452;42.780;23.116;2022-10-10T07:19:19;95200.63;;;11.55;100.00
55590;BME280;41452;42.780;23.116;2022-10-10T07:21:45;95203.56;;;11.66;100.00
55590;BME280;41452;42.780;23.116;2022-10-10T07:24:11;95223.31;;;11.75;100.00
55590;BME280;41452;42.780;23.116;2022-10-10T07:26:36;95184.56;;;11.64;100.00
55590;BME280;41452;42.780;23.116;2022-10-10T07:29:04;95185.38;;;11.64;100.00
55590;BME280;41452;42.780;23.116;2022-10-10T07:31:29;95155.09;;;11.55;100.00
55590;BME280;41452;42.780;23.116;2022-10-10T07:33:55;95141.69;;;11.56;100.00
55590;BME280;41452;42.780;23.116;2022-10-10T07:36:20;95192.16;;;11.97;100.00
55590;BME280;41452;42.780;23.116;2022-10-10T07:38:48;95164.34;;;11.83;100.00
55590;BME280;41452;42.780;23.116;2022-10-10T07:41:15;95197.31;;;12.10;100.00
55590;BME280;41452;42.780;23.116;2022-10-10T07:43:41;95182.88;;;12.13;100.00
55590;BME280;41452;42.780;23.116;2022-10-10T07:46:16;95199.13;;;12.28;99.76
55590;BME280;41452;42.780;23.116;2022-10-10T07:48:42;95209.28;;;12.43;100.00
55590;BME280;41452;42.780;23.116;2022-10-10T07:51:08;95215.91;;;12.52;100.00
55590;BME280;41452;42.780;23.116;2022-10-10T07:53:34;95175.50;;;12.40;100.00
55590;BME280;41452;42.780;23.116;2022-10-10T07:56:03;95195.41;;;12.54;97.89
55590;BME280;41452;42.780;23.116;2022-10-10T07:58:28;95200.72;;;12.66;97.56
55590;BME280;41452;42.780;23.116;2022-10-10T08:01:04;95208.53;;;12.73;97.46
55590;BME280;41452;42.780;23.116;2022-10-10T08:03:30;95178.34;;;12.57;97.18
55590;BME280;41452;42.780;23.116;2022-10-10T08:05:56;95178.41;;;12.69;95.31
55590;BME280;41452;42.780;23.116;2022-10-10T08:08:21;95204.84;;;12.92;96.13
55590;BME280;41452;42.780;23.116;2022-10-10T08:10:46;95207.41;;;12.99;95.17
55590;BME280;41452;42.780;23.116;2022-10-10T08:13:12;95163.88;;;12.78;94.72
55590;BME280;41452;42.780;23.116;2022-10-10T08:15:39;95208.31;;;13.05;94.63
55590;BME280;41452;42.780;23.116;2022-10-10T08:18:04;95180.53;;;12.90;92.02
55590;BME280;41452;42.780;23.116;2022-10-10T08:20:29;95166.66;;;12.83;92.55
55590;BME280;41452;42.780;23.116;2022-10-10T08:22:55;95176.56;;;13.00;92.73
55590;BME280;41452;42.780;23.116;2022-10-10T08:25:20;95167.06;;;12.99;92.87
55590;BME280;41452;42.780;23.116;2022-10-10T08:27:46;95141.66;;;12.86;91.51
55590;BME280;41452;42.780;23.116;2022-10-10T08:30:11;95197.78;;;13.35;91.10
55590;BME280;41452;42.780;23.116;2022-10-10T08:32:37;95176.59;;;13.23;91.50
55590;BME280;41452;42.780;23.116;2022-10-10T08:35:02;95188.03;;;13.36;90.20
55590;BME280;41452;42.780;23.116;2022-10-10T08:37:28;95164.28;;;13.36;90.39
55590;BME280;41452;42.780;23.116;2022-10-10T08:39:53;95182.09;;;13.52;90.45
55590;BME280;41452;42.780;23.116;2022-10-10T08:42:29;95198.97;;;13.75;90.04
55590;BME280;41452;42.780;23.116;2022-10-10T08:45:00;95213.47;;;13.84;88.34
55590;BME280;41452;42.780;23.116;2022-10-10T08:47:40;95169.59;;;13.59;88.94
55590;BME280;41452;42.780;23.116;2022-10-10T08:55:27;95195.19;;;13.94;87.49
55590;BME280;41452;42.780;23.116;2022-10-10T09:00:48;95185.19;;;13.96;85.38
55590;BME280;41452;42.780;23.116;2022-10-10T09:03:28;95232.38;;;14.28;86.38
55590;BME280;41452;42.780;23.116;2022-10-10T09:08:36;95235.91;;;14.45;87.07
55590;BME280;41452;42.780;23.116;2022-10-10T09:16:27;95232.78;;;14.72;86.76
55590;BME280;41452;42.780;23.116;2022-10-10T09:19:18;95234.03;;;14.81;86.49
55590;BME280;41452;42.780;23.116;2022-10-10T09:21:50;95225.53;;;14.79;83.85
55590;BME280;41452;42.780;23.116;2022-10-10T09:24:22;95219.78;;;14.82;83.35
55590;BME280;41452;42.780;23.116;2022-10-10T09:26:58;95187.41;;;14.63;83.16
55590;BME280;41452;42.780;23.116;2022-10-10T09:29:34;95246.03;;;15.01;82.55
55590;BME280;41452;42.780;23.116;2022-10-10T09:32:09;95232.13;;;14.94;82.08
55590;BME280;41452;42.780;23.116;2022-10-10T09:34:53;95235.78;;;15.05;83.01
55590;BME280;41452;42.780;23.116;2022-10-10T09:37:29;95215.81;;;14.97;82.60
55590;BME280;41452;42.780;23.116;2022-10-10T09:40:05;95254.34;;;15.21;82.30
55590;BME280;41452;42.780;23.116;2022-10-10T09:42:36;95246.19;;;15.23;82.29
55590;BME280;41452;42.780;23.116;2022-10-10T09:45:04;95198.91;;;14.98;81.44
55590;BME280;41452;42.780;23.116;2022-10-10T09:47:37;95235.38;;;15.25;80.84
55590;BME280;41452;42.780;23.116;2022-10-10T09:50:03;95219.72;;;15.23;79.71
55590;BME280;41452;42.780;23.116;2022-10-10T09:52:30;95237.56;;;15.45;80.54
55590;BME280;41452;42.780;23.116;2022-10-10T09:54:59;95239.97;;;15.46;80.06
55590;BME280;41452;42.780;23.116;2022-10-10T09:57:33;95241.34;;;15.49;79.04
55590;BME280;41452;42.780;23.116;2022-10-10T10:03:02;95205.38;;;15.36;79.56
55590;BME280;41452;42.780;23.116;2022-10-10T10:05:28;95201.63;;;15.49;79.65
55590;BME280;41452;42.780;23.116;2022-10-10T10:07:53;95192.81;;;15.43;78.74
55590;BME280;41452;42.780;23.116;2022-10-10T10:10:21;95218.09;;;15.68;78.74
55590;BME280;41452;42.780;23.116;2022-10-10T10:12:48;95197.81;;;15.56;78.50
55590;BME280;41452;42.780;23.116;2022-10-10T10:15:22;95216.56;;;15.72;79.33
55590;BME280;41452;42.780;23.116;2022-10-10T10:18:19;95222.13;;;15.87;79.50
55590;BME280;41452;42.780;23.116;2022-10-10T10:21:09;95221.97;;;15.94;77.71
55590;BME280;41452;42.780;23.116;2022-10-10T10:28:52;95120.94;;;15.51;76.00
55590;BME280;41452;42.780;23.116;2022-10-10T10:34:07;95204.78;;;16.35;77.31
55590;BME280;41452;42.780;23.116;2022-10-10T10:41:32;95213.56;;;16.58;76.02
55590;BME280;41452;42.780;23.116;2022-10-10T10:44:25;95179.75;;;16.48;75.47
55590;BME280;41452;42.780;23.116;2022-10-10T10:54:59;95172.91;;;16.75;73.09
55590;BME280;41452;42.780;23.116;2022-10-10T11:00:04;95165.66;;;16.87;72.88
55590;BME280;41452;42.780;23.116;2022-10-10T11:02:39;95167.31;;;16.93;72.96
55590;BME280;41452;42.780;23.116;2022-10-10T11:16:50;95169.72;;;17.22;69.89
55590;BME280;41452;42.780;23.116;2022-10-10T11:19:37;95166.53;;;17.25;69.58
55590;BME280;41452;42.780;23.116;2022-10-10T11:22:25;95155.19;;;17.29;69.38
55590;BME280;41452;42.780;23.116;2022-10-10T11:28:08;95149.38;;;17.33;68.88
55590;BME280;41452;42.780;23.116;2022-10-10T11:30:40;95070.88;;;16.82;67.39
55590;BME280;41452;42.780;23.116;2022-10-10T11:41:40;95126.47;;;17.26;68.58
55590;BME280;41452;42.780;23.116;2022-10-10T11:44:21;95121.72;;;17.28;69.40
55590;BME280;41452;42.780;23.116;2022-10-10T11:52:29;95054.03;;;16.94;67.05
55590;BME280;41452;42.780;23.116;2022-10-10T11:55:14;95105.25;;;17.26;67.83
55590;BME280;41452;42.780;23.116;2022-10-10T11:57:47;95059.69;;;17.02;66.80
55590;BME280;41452;42.780;23.116;2022-10-10T12:00:16;95091.25;;;17.36;67.15
55590;BME280;41452;42.780;23.116;2022-10-10T12:02:44;95092.34;;;17.40;67.99
55590;BME280;41452;42.780;23.116;2022-10-10T12:05:25;95065.16;;;17.28;67.89
55590;BME280;41452;42.780;23.116;2022-10-10T12:08:06;95088.16;;;17.49;66.86
55590;BME280;41452;42.780;23.116;2022-10-10T12:10:49;95024.75;;;17.16;66.86
55590;BME280;41452;42.780;23.116;2022-10-10T12:15:43;95030.41;;;17.29;66.57
55590;BME280;41452;42.780;23.116;2022-10-10T12:18:37;95081.94;;;17.76;65.76
55590;BME280;41452;42.780;23.116;2022-10-10T12:21:07;95014.06;;;17.43;65.61
55590;BME280;41452;42.780;23.116;2022-10-10T12:23:33;95054.06;;;17.74;64.75
55590;BME280;41452;42.780;23.116;2022-10-10T12:25:59;95058.84;;;17.77;65.66
55590;BME280;41452;42.780;23.116;2022-10-10T12:28:36;95003.16;;;17.44;65.21
55590;BME280;41452;42.780;23.116;2022-10-10T12:31:31;95072.53;;;18.01;64.58
55590;BME280;41452;42.780;23.116;2022-10-10T12:34:09;95068.88;;;18.07;64.57
55590;BME280;41452;42.780;23.116;2022-10-10T12:50:00;95073.16;;;18.23;62.61
55590;BME280;41452;42.780;23.116;2022-10-10T12:52:46;95072.09;;;18.19;63.18
55590;BME280;41452;42.780;23.116;2022-10-10T12:55:25;95033.44;;;17.91;63.85
55590;BME280;41452;42.780;23.116;2022-10-10T12:57:54;95039.03;;;17.95;62.44
55590;BME280;41452;42.780;23.116;2022-10-10T13:00:22;95055.28;;;18.03;63.44
55590;BME280;41452;42.780;23.116;2022-10-10T13:02:54;95035.06;;;17.97;63.39
55590;BME280;41452;42.780;23.116;2022-10-10T13:05:26;95071.03;;;18.26;64.69
55590;BME280;41452;42.780;23.116;2022-10-10T13:07:54;95062.31;;;18.30;63.82
55590;BME280;41452;42.780;23.116;2022-10-10T13:10:26;95008.47;;;17.97;63.46
55590;BME280;41452;42.780;23.116;2022-10-10T13:13:03;95059.91;;;18.29;62.90
55590;BME280;41452;42.780;23.116;2022-10-10T13:15:29;95013.25;;;17.95;62.50
55590;BME280;41452;42.780;23.116;2022-10-10T13:17:55;95026.81;;;17.99;63.61
55590;BME280;41452;42.780;23.116;2022-10-10T13:20:37;95007.66;;;17.86;62.91
55590;BME280;41452;42.780;23.116;2022-10-10T13:23:06;95064.16;;;18.35;64.31
55590;BME280;41452;42.780;23.116;2022-10-10T13:25:33;95059.66;;;18.35;64.48
55590;BME280;41452;42.780;23.116;2022-10-10T13:27:59;95063.91;;;18.36;62.95
55590;BME280;41452;42.780;23.116;2022-10-10T13:30:25;95041.00;;;18.20;62.58
55590;BME280;41452;42.780;23.116;2022-10-10T13:32:52;95031.13;;;18.15;62.21
55590;BME280;41452;42.780;23.116;2022-10-10T13:35:23;95056.19;;;18.35;63.69
55590;BME280;41452;42.780;23.116;2022-10-10T13:37:58;95060.97;;;18.33;62.95
55590;BME280;41452;42.780;23.116;2022-10-10T13:40:25;95064.16;;;18.35;63.78
55590;BME280;41452;42.780;23.116;2022-10-10T13:42:51;95062.03;;;18.32;62.66
55590;BME280;41452;42.780;23.116;2022-10-10T13:45:36;95071.59;;;18.33;63.33
55590;BME280;41452;42.780;23.116;2022-10-10T13:50:29;95066.28;;;18.33;63.51
55590;BME280;41452;42.780;23.116;2022-10-10T14:01:38;95067.34;;;18.37;62.32
55590;BME280;41452;42.780;23.116;2022-10-10T14:07:21;95057.28;;;18.39;62.49
55590;BME280;41452;42.780;23.116;2022-10-10T14:09:53;95053.81;;;18.38;63.11
55590;BME280;41452;42.780;23.116;2022-10-10T14:14:50;95053.56;;;18.45;62.68
55590;BME280;41452;42.780;23.116;2022-10-10T14:17:17;95001.91;;;18.15;62.38
55590;BME280;41452;42.780;23.116;2022-10-10T14:19:44;95050.88;;;18.40;61.36
55590;BME280;41452;42.780;23.116;2022-10-10T14:22:09;95016.78;;;18.11;62.12
55590;BME280;41452;42.780;23.116;2022-10-10T14:24:35;95041.00;;;18.20;62.43
55590;BME280;41452;42.780;23.116;2022-10-10T14:29:44;95051.41;;;18.27;62.88
55590;BME280;41452;42.780;23.116;2022-10-10T14:32:11;95036.44;;;18.10;61.71
55590;BME280;41452;42.780;23.116;2022-10-10T14:34:37;94970.06;;;17.62;61.73
55590;BME280;41452;42.780;23.116;2022-10-10T14:37:02;94992.47;;;17.82;62.49
55590;BME280;41452;42.780;23.116;2022-10-10T14:39:28;94962.63;;;17.59;62.52
55590;BME280;41452;42.780;23.116;2022-10-10T14:41:54;95027.38;;;18.06;62.40
55590;BME280;41452;42.780;23.116;2022-10-10T14:44:19;94992.78;;;17.85;62.73
55590;BME280;41452;42.780;23.116;2022-10-10T14:46:44;94894.75;;;17.26;63.10
55590;BME280;41452;42.780;23.116;2022-10-10T14:49:17;95026.56;;;18.00;63.45
55590;BME280;41452;42.780;23.116;2022-10-10T14:51:44;94994.28;;;17.76;63.09
55590;BME280;41452;42.780;23.116;2022-10-10T14:54:10;95019.34;;;17.91;63.46
55590;BME280;41452;42.780;23.116;2022-10-10T14:56:35;95032.13;;;17.99;63.57
55590;BME280;41452;42.780;23.116;2022-10-10T14:59:00;94969.16;;;17.41;62.97
55590;BME280;41452;42.780;23.116;2022-10-10T15:01:26;95037.66;;;17.87;63.60
55590;BME280;41452;42.780;23.116;2022-10-10T15:03:51;94999.75;;;17.49;63.26
55590;BME280;41452;42.780;23.116;2022-10-10T15:06:17;95041.06;;;17.77;63.47